sensor_id;sensor_type;location;lat;lon;timestamp;P1;durP1;ratioP1;P2;durP2;ratioP2
74644;SDS011;63163;55.630;37.594;2023-02-11T00:00:11;15.7;;;6.0;;
74644;SDS011;63163;55.630;37.594;2023-02-11T00:01:13;9.7;;;4.4;;
74644;SDS011;63163;55.630;37.594;2023-02-11T00:02:15;16.9;;;6.2;;
74644;SDS011;63163;55.630;37.594;2023-02-11T00:03:16;13.2;;;5.4;;
74644;SDS011;63163;55.630;37.594;2023-02-11T00:04:17;18.2;;;7.3;;
74644;SDS011;63163;55.630;37.594;2023-02-11T00:05:17;15.0;;;6.4;;
74644;SDS011;63163;55.630;37.594;2023-02-11T00:06:18;15.4;;;5.0;;
74644;SDS011;63163;55.630;37.594;2023-02-11T00:07:18;13.2;;;5.4;;
74644;SDS011;63163;55.630;37.594;2023-02-11T00:08:19;13.7;;;6.0;;
74644;SDS011;63163;55.630;37.594;2023-02-11T00:09:19;12.9;;;6.1;;
74644;SDS011;63163;55.630;37.594;2023-02-11T00:10:20;11.6;;;5.5;;
74644;SDS011;63163;55.630;37.594;2023-02-11T00:11:21;15.0;;;6.5;;
74644;SDS011;63163;55.630;37.594;2023-02-11T00:12:22;11.4;;;5.7;;
74644;SDS011;63163;55.630;37.594;2023-02-11T00:13:23;14.6;;;6.3;;
74644;SDS011;63163;55.630;37.594;2023-02-11T00:14:24;9.6;;;4.0;;
74644;SDS011;63163;55.630;37.594;2023-02-11T00:15:25;21.9;;;6.0;;
74644;SDS011;63163;55.630;37.594;2023-02-11T00:16:25;16.6;;;6.7;;
74644;SDS011;63163;55.630;37.594;2023-02-11T00:17:26;13.7;;;6.4;;
74644;SDS011;63163;55.630;37.594;2023-02-11T00:18:26;12.4;;;5.5;;
74644;SDS011;63163;55.630;37.594;2023-02-11T00:19:27;14.8;;;5.7;;
74644;SDS011;63163;55.630;37.594;2023-02-11T00:20:28;18.3;;;6.5;;
74644;SDS011;63163;55.630;37.594;2023-02-11T00:21:28;12.8;;;6.4;;
74644;SDS011;63163;55.630;37.594;2023-02-11T00:22:29;17.1;;;7.1;;
74644;SDS011;63163;55.630;37.594;2023-02-11T00:23:30;16.0;;;6.4;;
74644;SDS011;63163;55.630;37.594;2023-02-11T00:24:30;14.4;;;6.1;;
74644;SDS011;63163;55.630;37.594;2023-02-11T00:25:31;12.7;;;5.6;;
74644;SDS011;63163;55.630;37.594;2023-02-11T00:26:32;13.0;;;5.9;;
74644;SDS011;63163;55.630;37.594;2023-02-11T00:27:33;12.9;;;5.7;;
74644;SDS011;63163;55.630;37.594;2023-02-11T00:28:35;12.4;;;5.9;;
74644;SDS011;63163;55.630;37.594;2023-02-11T00:29:36;11.8;;;5.0;;
74644;SDS011;63163;55.630;37.594;2023-02-11T00:30:36;13.7;;;5.5;;
74644;SDS011;63163;55.630;37.594;2023-02-11T00:31:37;8.9;;;3.8;;
74644;SDS011;63163;55.630;37.594;2023-02-11T00:32:38;15.5;;;6.3;;
74644;SDS011;63163;55.630;37.594;2023-02-11T00:33:38;15.5;;;6.5;;
74644;SDS011;63163;55.630;37.594;2023-02-11T00:34:39;10.6;;;4.7;;
74644;SDS011;63163;55.630;37.594;2023-02-11T00:35:40;18.1;;;5.5;;
74644;SDS011;63163;55.630;37.594;2023-02-11T00:36:40;16.5;;;6.6;;
74644;SDS011;63163;55.630;37.594;2023-02-11T00:37:41;12.2;;;5.5;;
74644;SDS011;63163;55.630;37.594;2023-02-11T00:38:42;8.8;;;3.6;;
74644;SDS011;63163;55.630;37.594;2023-02-11T00:39:43;10.8;;;4.7;;
74644;SDS011;63163;55.630;37.594;2023-02-11T00:40:43;11.9;;;5.1;;
74644;SDS011;63163;55.630;37.594;2023-02-11T00:41:44;12.2;;;5.4;;
74644;SDS011;63163;55.630;37.594;2023-02-11T00:42:44;12.7;;;6.0;;
74644;SDS011;63163;55.630;37.594;2023-02-11T00:43:45;16.3;;;6.5;;
74644;SDS011;63163;55.630;37.594;2023-02-11T00:44:46;11.8;;;5.4;;
74644;SDS011;63163;55.630;37.594;2023-02-11T00:45:46;13.2;;;5.6;;
74644;SDS011;63163;55.630;37.594;2023-02-11T00:46:47;10.9;;;5.7;;
74644;SDS011;63163;55.630;37.594;2023-02-11T00:47:47;8.6;;;4.0;;
74644;SDS011;63163;55.630;37.594;2023-02-11T00:48:48;10.9;;;5.5;;
74644;SDS011;63163;55.630;37.594;2023-02-11T00:49:50;12.8;;;5.0;;
74644;SDS011;63163;55.630;37.594;2023-02-11T00:50:51;15.0;;;5.2;;
74644;SDS011;63163;55.630;37.594;2023-02-11T00:51:51;12.9;;;5.7;;
74644;SDS011;63163;55.630;37.594;2023-02-11T00:52:52;13.8;;;6.1;;
74644;SDS011;63163;55.630;37.594;2023-02-11T00:53:53;10.7;;;4.6;;
74644;SDS011;63163;55.630;37.594;2023-02-11T00:54:53;12.7;;;5.1;;
74644;SDS011;63163;55.630;37.594;2023-02-11T00:55:54;12.6;;;4.9;;
74644;SDS011;63163;55.630;37.594;2023-02-11T00:56:54;7.4;;;3.3;;
74644;SDS011;63163;55.630;37.594;2023-02-11T00:57:55;12.2;;;5.4;;
74644;SDS011;63163;55.630;37.594;2023-02-11T00:58:55;7.4;;;3.4;;
74644;SDS011;63163;55.630;37.594;2023-02-11T00:59:56;12.3;;;4.7;;
74644;SDS011;63163;55.630;37.594;2023-02-11T01:00:56;13.3;;;5.7;;
74644;SDS011;63163;55.630;37.594;2023-02-11T01:01:57;12.0;;;5.9;;
74644;SDS011;63163;55.630;37.594;2023-02-11T01:02:57;9.8;;;4.8;;
74644;SDS011;63163;55.630;37.594;2023-02-11T01:03:58;8.5;;;4.0;;
74644;SDS011;63163;55.630;37.594;2023-02-11T01:04:59;13.4;;;4.6;;
74644;SDS011;63163;55.630;37.594;2023-02-11T01:06:00;8.4;;;4.3;;
74644;SDS011;63163;55.630;37.594;2023-02-11T01:07:01;11.5;;;4.4;;
74644;SDS011;63163;55.630;37.594;2023-02-11T01:08:01;11.9;;;5.6;;
74644;SDS011;63163;55.630;37.594;2023-02-11T01:09:02;9.0;;;4.6;;
74644;SDS011;63163;55.630;37.594;2023-02-11T01:10:03;7.3;;;2.8;;
74644;SDS011;63163;55.630;37.594;2023-02-11T01:11:04;9.8;;;4.5;;
74644;SDS011;63163;55.630;37.594;2023-02-11T01:12:05;8.1;;;3.8;;
74644;SDS011;63163;55.630;37.594;2023-02-11T01:13:06;10.8;;;5.0;;
74644;SDS011;63163;55.630;37.594;2023-02-11T01:14:06;11.4;;;4.3;;
74644;SDS011;63163;55.630;37.594;2023-02-11T01:15:07;13.5;;;5.5;;
74644;SDS011;63163;55.630;37.594;2023-02-11T01:16:08;8.0;;;3.5;;
74644;SDS011;63163;55.630;37.594;2023-02-11T01:17:09;11.0;;;4.5;;
74644;SDS011;63163;55.630;37.594;2023-02-11T01:18:10;13.2;;;5.4;;
74644;SDS011;63163;55.630;37.594;2023-02-11T01:19:10;10.8;;;5.1;;
74644;SDS011;63163;55.630;37.594;2023-02-11T01:20:12;12.4;;;4.9;;
74644;SDS011;63163;55.630;37.594;2023-02-11T01:21:13;12.5;;;5.1;;
74644;SDS011;63163;55.630;37.594;2023-02-11T01:22:14;7.9;;;3.6;;
74644;SDS011;63163;55.630;37.594;2023-02-11T01:23:14;12.3;;;4.6;;
74644;SDS011;63163;55.630;37.594;2023-02-11T01:24:15;13.7;;;5.4;;
74644;SDS011;63163;55.630;37.594;2023-02-11T01:25:15;7.5;;;3.4;;
74644;SDS011;63163;55.630;37.594;2023-02-11T01:26:16;9.6;;;4.3;;
74644;SDS011;63163;55.630;37.594;2023-02-11T01:27:16;9.2;;;4.4;;
74644;SDS011;63163;55.630;37.594;2023-02-11T01:28:18;9.1;;;4.2;;
74644;SDS011;63163;55.630;37.594;2023-02-11T01:29:19;11.4;;;5.1;;
74644;SDS011;63163;55.630;37.594;2023-02-11T01:30:19;12.0;;;4.9;;
74644;SDS011;63163;55.630;37.594;2023-02-11T01:31:20;12.2;;;5.7;;
74644;SDS011;63163;55.630;37.594;2023-02-11T01:32:20;10.5;;;4.6;;
74644;SDS011;63163;55.630;37.594;2023-02-11T01:33:21;10.0;;;4.7;;
74644;SDS011;63163;55.630;37.594;2023-02-11T01:34:22;7.5;;;2.7;;
74644;SDS011;63163;55.630;37.594;2023-02-11T01:35:22;11.3;;;5.0;;
74644;SDS011;63163;55.630;37.594;2023-02-11T01:36:23;10.7;;;4.9;;
74644;SDS011;63163;55.630;37.594;2023-02-11T01:37:23;8.9;;;4.0;;
74644;SDS011;63163;55.630;37.594;2023-02-11T01:38:24;12.8;;;4.7;;
74644;SDS011;63163;55.630;37.594;2023-02-11T01:39:25;6.3;;;3.2;;
74644;SDS011;63163;55.630;37.594;2023-02-11T01:40:26;7.4;;;3.3;;
74644;SDS011;63163;55.630;37.594;2023-02-11T01:41:26;12.5;;;5.2;;
74644;SDS011;63163;55.630;37.594;2023-02-11T01:42:27;9.6;;;4.5;;
74644;SDS011;63163;55.630;37.594;2023-02-11T01:43:30;8.9;;;3.8;;
74644;SDS011;63163;55.630;37.594;2023-02-11T01:44:31;8.0;;;4.0;;
74644;SDS011;63163;55.630;37.594;2023-02-11T01:45:57;12.2;;;4.5;;
74644;SDS011;63163;55.630;37.594;2023-02-11T01:46:58;10.8;;;4.0;;
74644;SDS011;63163;55.630;37.594;2023-02-11T01:47:58;12.1;;;4.4;;
74644;SDS011;63163;55.630;37.594;2023-02-11T01:49:03;11.4;;;4.3;;
74644;SDS011;63163;55.630;37.594;2023-02-11T01:50:05;11.2;;;4.8;;
74644;SDS011;63163;55.630;37.594;2023-02-11T01:51:07;8.5;;;4.1;;
74644;SDS011;63163;55.630;37.594;2023-02-11T01:52:08;11.1;;;4.0;;
74644;SDS011;63163;55.630;37.594;2023-02-11T01:53:10;9.8;;;4.6;;
74644;SDS011;63163;55.630;37.594;2023-02-11T01:56:18;10.2;;;4.3;;
74644;SDS011;63163;55.630;37.594;2023-02-11T01:58:23;8.2;;;3.3;;
74644;SDS011;63163;55.630;37.594;2023-02-11T01:59:26;10.4;;;4.2;;
74644;SDS011;63163;55.630;37.594;2023-02-11T02:00:30;6.5;;;3.0;;
74644;SDS011;63163;55.630;37.594;2023-02-11T02:01:32;10.5;;;4.4;;
74644;SDS011;63163;55.630;37.594;2023-02-11T02:02:36;8.9;;;3.4;;
74644;SDS011;63163;55.630;37.594;2023-02-11T02:03:39;10.3;;;3.9;;
74644;SDS011;63163;55.630;37.594;2023-02-11T02:04:43;9.0;;;4.0;;
74644;SDS011;63163;55.630;37.594;2023-02-11T02:05:46;11.3;;;3.6;;
74644;SDS011;63163;55.630;37.594;2023-02-11T02:06:49;7.5;;;3.4;;
74644;SDS011;63163;55.630;37.594;2023-02-11T02:07:53;8.2;;;3.7;;
74644;SDS011;63163;55.630;37.594;2023-02-11T02:08:55;9.3;;;3.4;;
74644;SDS011;63163;55.630;37.594;2023-02-11T02:10:02;9.2;;;3.5;;
74644;SDS011;63163;55.630;37.594;2023-02-11T02:11:03;8.3;;;3.7;;
74644;SDS011;63163;55.630;37.594;2023-02-11T02:12:04;8.4;;;4.0;;
74644;SDS011;63163;55.630;37.594;2023-02-11T02:13:05;7.3;;;3.1;;
74644;SDS011;63163;55.630;37.594;2023-02-11T02:14:05;8.8;;;3.5;;
74644;SDS011;63163;55.630;37.594;2023-02-11T02:15:37;9.9;;;3.9;;
74644;SDS011;63163;55.630;37.594;2023-02-11T02:16:39;11.8;;;3.2;;
74644;SDS011;63163;55.630;37.594;2023-02-11T02:17:41;7.4;;;2.9;;
74644;SDS011;63163;55.630;37.594;2023-02-11T02:18:45;6.3;;;2.8;;
74644;SDS011;63163;55.630;37.594;2023-02-11T02:20:02;6.3;;;2.9;;
74644;SDS011;63163;55.630;37.594;2023-02-11T02:21:12;11.8;;;3.6;;
74644;SDS011;63163;55.630;37.594;2023-02-11T02:22:52;11.1;;;3.4;;
74644;SDS011;63163;55.630;37.594;2023-02-11T02:24:03;8.7;;;3.2;;
74644;SDS011;63163;55.630;37.594;2023-02-11T02:25:17;10.3;;;3.2;;
74644;SDS011;63163;55.630;37.594;2023-02-11T02:26:26;6.7;;;2.6;;
74644;SDS011;63163;55.630;37.594;2023-02-11T02:27:36;8.3;;;3.0;;
74644;SDS011;63163;55.630;37.594;2023-02-11T02:28:45;7.0;;;2.9;;
74644;SDS011;63163;55.630;37.594;2023-02-11T02:29:58;9.4;;;3.8;;
74644;SDS011;63163;55.630;37.594;2023-02-11T02:31:08;6.0;;;3.0;;
74644;SDS011;63163;55.630;37.594;2023-02-11T02:32:17;8.7;;;3.5;;
74644;SDS011;63163;55.630;37.594;2023-02-11T02:33:29;9.6;;;3.7;;
74644;SDS011;63163;55.630;37.594;2023-02-11T02:34:34;5.9;;;2.4;;
74644;SDS011;63163;55.630;37.594;2023-02-11T02:35:38;10.4;;;3.6;;
74644;SDS011;63163;55.630;37.594;2023-02-11T02:36:41;7.8;;;3.3;;
74644;SDS011;63163;55.630;37.594;2023-02-11T02:37:45;12.5;;;3.7;;
74644;SDS011;63163;55.630;37.594;2023-02-11T02:38:48;10.7;;;4.1;;
74644;SDS011;63163;55.630;37.594;2023-02-11T02:39:51;9.6;;;3.6;;
74644;SDS011;63163;55.630;37.594;2023-02-11T02:40:53;7.7;;;3.3;;
74644;SDS011;63163;55.630;37.594;2023-02-11T02:41:56;8.9;;;2.8;;
74644;SDS011;63163;55.630;37.594;2023-02-11T02:42:57;6.4;;;3.0;;
74644;SDS011;63163;55.630;37.594;2023-02-11T02:43:58;10.5;;;3.9;;
74644;SDS011;63163;55.630;37.594;2023-02-11T02:44:59;5.9;;;3.2;;
74644;SDS011;63163;55.630;37.594;2023-02-11T02:46:09;7.5;;;3.1;;
74644;SDS011;63163;55.630;37.594;2023-02-11T02:47:09;7.7;;;3.0;;
74644;SDS011;63163;55.630;37.594;2023-02-11T02:48:27;9.3;;;3.7;;
74644;SDS011;63163;55.630;37.594;2023-02-11T02:49:28;9.8;;;3.9;;
74644;SDS011;63163;55.630;37.594;2023-02-11T02:50:29;8.8;;;3.3;;
74644;SDS011;63163;55.630;37.594;2023-02-11T02:52:34;9.9;;;3.6;;
74644;SDS011;63163;55.630;37.594;2023-02-11T02:53:38;6.1;;;2.4;;
74644;SDS011;63163;55.630;37.594;2023-02-11T02:54:46;9.9;;;3.1;;
74644;SDS011;63163;55.630;37.594;2023-02-11T02:55:51;8.9;;;2.9;;
74644;SDS011;63163;55.630;37.594;2023-02-11T02:56:55;9.1;;;2.9;;
74644;SDS011;63163;55.630;37.594;2023-02-11T02:59:12;6.7;;;2.9;;
74644;SDS011;63163;55.630;37.594;2023-02-11T03:00:17;8.9;;;3.4;;
74644;SDS011;63163;55.630;37.594;2023-02-11T03:01:23;6.3;;;2.7;;
74644;SDS011;63163;55.630;37.594;2023-02-11T03:02:28;8.6;;;3.1;;
74644;SDS011;63163;55.630;37.594;2023-02-11T03:03:33;8.5;;;3.3;;
74644;SDS011;63163;55.630;37.594;2023-02-11T03:04:36;8.0;;;2.9;;
74644;SDS011;63163;55.630;37.594;2023-02-11T03:05:41;7.6;;;3.0;;
74644;SDS011;63163;55.630;37.594;2023-02-11T03:06:48;6.7;;;2.6;;
74644;SDS011;63163;55.630;37.594;2023-02-11T03:07:51;7.3;;;3.0;;
74644;SDS011;63163;55.630;37.594;2023-02-11T03:08:56;7.9;;;3.8;;
74644;SDS011;63163;55.630;37.594;2023-02-11T03:09:59;9.6;;;3.2;;
74644;SDS011;63163;55.630;37.594;2023-02-11T03:11:01;6.8;;;3.5;;
74644;SDS011;63163;55.630;37.594;2023-02-11T03:12:02;7.4;;;3.3;;
74644;SDS011;63163;55.630;37.594;2023-02-11T03:13:03;7.1;;;3.2;;
74644;SDS011;63163;55.630;37.594;2023-02-11T03:14:05;10.0;;;3.1;;
74644;SDS011;63163;55.630;37.594;2023-02-11T03:15:07;7.3;;;2.8;;
74644;SDS011;63163;55.630;37.594;2023-02-11T03:16:10;8.7;;;3.0;;
74644;SDS011;63163;55.630;37.594;2023-02-11T03:17:11;11.3;;;3.3;;
74644;SDS011;63163;55.630;37.594;2023-02-11T03:18:14;7.1;;;2.7;;
74644;SDS011;63163;55.630;37.594;2023-02-11T03:19:17;8.8;;;3.3;;
74644;SDS011;63163;55.630;37.594;2023-02-11T03:20:19;10.2;;;3.7;;
74644;SDS011;63163;55.630;37.594;2023-02-11T03:21:21;7.9;;;3.3;;
74644;SDS011;63163;55.630;37.594;2023-02-11T03:22:23;9.7;;;3.3;;
74644;SDS011;63163;55.630;37.594;2023-02-11T03:23:25;9.2;;;3.3;;
74644;SDS011;63163;55.630;37.594;2023-02-11T03:24:28;10.2;;;3.2;;
74644;SDS011;63163;55.630;37.594;2023-02-11T03:25:31;7.9;;;3.2;;
74644;SDS011;63163;55.630;37.594;2023-02-11T03:26:34;8.1;;;3.3;;
74644;SDS011;63163;55.630;37.594;2023-02-11T03:27:37;7.6;;;2.8;;
74644;SDS011;63163;55.630;37.594;2023-02-11T03:28:41;8.4;;;3.0;;
74644;SDS011;63163;55.630;37.594;2023-02-11T03:29:45;9.3;;;3.4;;
74644;SDS011;63163;55.630;37.594;2023-02-11T03:30:52;7.6;;;3.1;;
74644;SDS011;63163;55.630;37.594;2023-02-11T03:31:57;4.8;;;2.4;;
74644;SDS011;63163;55.630;37.594;2023-02-11T03:33:01;8.5;;;3.0;;
74644;SDS011;63163;55.630;37.594;2023-02-11T03:34:04;9.2;;;3.5;;
74644;SDS011;63163;55.630;37.594;2023-02-11T03:35:07;7.4;;;3.1;;
74644;SDS011;63163;55.630;37.594;2023-02-11T03:36:10;6.4;;;2.8;;
74644;SDS011;63163;55.630;37.594;2023-02-11T03:37:15;8.6;;;3.2;;
74644;SDS011;63163;55.630;37.594;2023-02-11T03:38:18;8.6;;;3.1;;
74644;SDS011;63163;55.630;37.594;2023-02-11T03:39:20;14.2;;;3.4;;
74644;SDS011;63163;55.630;37.594;2023-02-11T03:40:22;10.5;;;3.3;;
74644;SDS011;63163;55.630;37.594;2023-02-11T03:41:24;5.9;;;2.8;;
74644;SDS011;63163;55.630;37.594;2023-02-11T03:42:25;8.9;;;3.4;;
74644;SDS011;63163;55.630;37.594;2023-02-11T03:43:29;8.4;;;3.5;;
74644;SDS011;63163;55.630;37.594;2023-02-11T03:44:32;9.7;;;3.5;;
74644;SDS011;63163;55.630;37.594;2023-02-11T03:45:34;7.2;;;3.1;;
74644;SDS011;63163;55.630;37.594;2023-02-11T03:46:36;7.7;;;3.1;;
74644;SDS011;63163;55.630;37.594;2023-02-11T03:47:39;6.1;;;2.5;;
74644;SDS011;63163;55.630;37.594;2023-02-11T03:48:42;6.6;;;3.3;;
74644;SDS011;63163;55.630;37.594;2023-02-11T03:49:44;7.7;;;2.6;;
74644;SDS011;63163;55.630;37.594;2023-02-11T03:50:46;10.1;;;3.6;;
74644;SDS011;63163;55.630;37.594;2023-02-11T03:51:48;7.1;;;2.8;;
74644;SDS011;63163;55.630;37.594;2023-02-11T03:52:50;5.0;;;1.8;;
74644;SDS011;63163;55.630;37.594;2023-02-11T03:53:51;6.6;;;2.5;;
74644;SDS011;63163;55.630;37.594;2023-02-11T03:54:54;7.9;;;3.0;;
74644;SDS011;63163;55.630;37.594;2023-02-11T03:55:56;10.2;;;3.4;;
74644;SDS011;63163;55.630;37.594;2023-02-11T03:56:59;8.3;;;2.7;;
74644;SDS011;63163;55.630;37.594;2023-02-11T03:58:00;9.0;;;3.5;;
74644;SDS011;63163;55.630;37.594;2023-02-11T03:59:01;6.3;;;2.6;;
74644;SDS011;63163;55.630;37.594;2023-02-11T04:00:01;8.9;;;2.4;;
74644;SDS011;63163;55.630;37.594;2023-02-11T04:01:02;5.2;;;2.6;;
74644;SDS011;63163;55.630;37.594;2023-02-11T04:02:04;10.2;;;3.4;;
74644;SDS011;63163;55.630;37.594;2023-02-11T04:03:04;7.0;;;2.7;;
74644;SDS011;63163;55.630;37.594;2023-02-11T04:04:05;8.6;;;2.7;;
74644;SDS011;63163;55.630;37.594;2023-02-11T04:05:06;5.1;;;2.3;;
74644;SDS011;63163;55.630;37.594;2023-02-11T04:06:07;6.8;;;2.8;;
74644;SDS011;63163;55.630;37.594;2023-02-11T04:07:08;9.1;;;3.2;;
74644;SDS011;63163;55.630;37.594;2023-02-11T04:08:08;6.9;;;2.9;;
74644;SDS011;63163;55.630;37.594;2023-02-11T04:09:09;8.0;;;3.0;;
74644;SDS011;63163;55.630;37.594;2023-02-11T04:10:10;6.3;;;2.1;;
74644;SDS011;63163;55.630;37.594;2023-02-11T04:11:11;4.6;;;2.3;;
74644;SDS011;63163;55.630;37.594;2023-02-11T04:12:11;7.5;;;2.8;;
74644;SDS011;63163;55.630;37.594;2023-02-11T04:13:12;7.3;;;2.7;;
74644;SDS011;63163;55.630;37.594;2023-02-11T04:14:13;7.7;;;2.9;;
74644;SDS011;63163;55.630;37.594;2023-02-11T04:15:14;9.1;;;2.9;;
74644;SDS011;63163;55.630;37.594;2023-02-11T04:16:14;8.5;;;2.7;;
74644;SDS011;63163;55.630;37.594;2023-02-11T04:17:15;7.2;;;3.0;;
74644;SDS011;63163;55.630;37.594;2023-02-11T04:18:15;6.5;;;2.7;;
74644;SDS011;63163;55.630;37.594;2023-02-11T04:19:16;9.2;;;3.1;;
74644;SDS011;63163;55.630;37.594;2023-02-11T04:20:16;6.1;;;2.7;;
74644;SDS011;63163;55.630;37.594;2023-02-11T04:21:17;7.7;;;2.7;;
74644;SDS011;63163;55.630;37.594;2023-02-11T04:22:18;6.5;;;2.2;;
74644;SDS011;63163;55.630;37.594;2023-02-11T04:23:18;6.6;;;2.5;;
74644;SDS011;63163;55.630;37.594;2023-02-11T04:24:19;5.6;;;2.5;;
74644;SDS011;63163;55.630;37.594;2023-02-11T04:25:19;6.5;;;2.6;;
74644;SDS011;63163;55.630;37.594;2023-02-11T04:26:20;10.3;;;3.3;;
74644;SDS011;63163;55.630;37.594;2023-02-11T04:27:20;9.8;;;2.6;;
74644;SDS011;63163;55.630;37.594;2023-02-11T04:28:21;8.3;;;3.1;;
74644;SDS011;63163;55.630;37.594;2023-02-11T04:29:22;4.4;;;2.0;;
74644;SDS011;63163;55.630;37.594;2023-02-11T04:30:22;7.0;;;2.5;;
74644;SDS011;63163;55.630;37.594;2023-02-11T04:31:23;8.1;;;2.5;;
74644;SDS011;63163;55.630;37.594;2023-02-11T04:32:23;6.7;;;2.8;;
74644;SDS011;63163;55.630;37.594;2023-02-11T04:33:24;6.0;;;2.2;;
74644;SDS011;63163;55.630;37.594;2023-02-11T04:34:24;7.3;;;2.5;;
74644;SDS011;63163;55.630;37.594;2023-02-11T04:35:25;5.2;;;2.3;;
74644;SDS011;63163;55.630;37.594;2023-02-11T04:36:25;5.1;;;2.4;;
74644;SDS011;63163;55.630;37.594;2023-02-11T04:37:26;6.5;;;2.4;;
74644;SDS011;63163;55.630;37.594;2023-02-11T04:38:27;4.2;;;2.4;;
74644;SDS011;63163;55.630;37.594;2023-02-11T04:39:27;7.3;;;2.7;;
74644;SDS011;63163;55.630;37.594;2023-02-11T04:40:28;6.8;;;2.3;;
74644;SDS011;63163;55.630;37.594;2023-02-11T04:41:28;7.0;;;2.3;;
74644;SDS011;63163;55.630;37.594;2023-02-11T04:42:29;5.7;;;2.4;;
74644;SDS011;63163;55.630;37.594;2023-02-11T04:43:30;7.4;;;2.5;;
74644;SDS011;63163;55.630;37.594;2023-02-11T04:44:30;5.3;;;2.1;;
74644;SDS011;63163;55.630;37.594;2023-02-11T04:45:31;3.9;;;1.7;;
74644;SDS011;63163;55.630;37.594;2023-02-11T04:46:32;7.8;;;2.5;;
74644;SDS011;63163;55.630;37.594;2023-02-11T04:47:32;7.4;;;2.4;;
74644;SDS011;63163;55.630;37.594;2023-02-11T04:48:33;5.4;;;2.1;;
74644;SDS011;63163;55.630;37.594;2023-02-11T04:49:34;6.7;;;2.4;;
74644;SDS011;63163;55.630;37.594;2023-02-11T04:50:35;6.6;;;2.5;;
74644;SDS011;63163;55.630;37.594;2023-02-11T04:51:35;5.1;;;2.1;;
74644;SDS011;63163;55.630;37.594;2023-02-11T04:52:36;6.1;;;2.5;;
74644;SDS011;63163;55.630;37.594;2023-02-11T04:53:36;5.3;;;2.1;;
74644;SDS011;63163;55.630;37.594;2023-02-11T04:54:37;3.3;;;1.4;;
74644;SDS011;63163;55.630;37.594;2023-02-11T04:55:37;5.6;;;2.2;;
74644;SDS011;63163;55.630;37.594;2023-02-11T04:56:38;6.6;;;1.9;;
74644;SDS011;63163;55.630;37.594;2023-02-11T04:57:38;4.6;;;1.9;;
74644;SDS011;63163;55.630;37.594;2023-02-11T04:58:39;7.7;;;2.0;;
74644;SDS011;63163;55.630;37.594;2023-02-11T04:59:39;7.1;;;2.7;;
74644;SDS011;63163;55.630;37.594;2023-02-11T05:00:40;7.4;;;2.3;;
74644;SDS011;63163;55.630;37.594;2023-02-11T05:01:41;5.4;;;1.8;;
74644;SDS011;63163;55.630;37.594;2023-02-11T05:02:41;7.6;;;2.3;;
74644;SDS011;63163;55.630;37.594;2023-02-11T05:03:42;5.9;;;2.1;;
74644;SDS011;63163;55.630;37.594;2023-02-11T05:04:42;7.1;;;2.5;;
74644;SDS011;63163;55.630;37.594;2023-02-11T05:05:43;7.5;;;2.0;;
74644;SDS011;63163;55.630;37.594;2023-02-11T05:06:43;5.3;;;2.4;;
74644;SDS011;63163;55.630;37.594;2023-02-11T05:07:44;8.0;;;2.4;;
74644;SDS011;63163;55.630;37.594;2023-02-11T05:08:45;4.5;;;2.2;;
74644;SDS011;63163;55.630;37.594;2023-02-11T05:09:45;7.8;;;2.9;;
74644;SDS011;63163;55.630;37.594;2023-02-11T05:10:46;6.6;;;2.5;;
74644;SDS011;63163;55.630;37.594;2023-02-11T05:11:47;5.0;;;1.8;;
74644;SDS011;63163;55.630;37.594;2023-02-11T05:12:47;4.3;;;1.9;;
74644;SDS011;63163;55.630;37.594;2023-02-11T05:13:48;2.4;;;1.1;;
74644;SDS011;63163;55.630;37.594;2023-02-11T05:14:49;5.7;;;2.4;;
74644;SDS011;63163;55.630;37.594;2023-02-11T05:15:49;5.2;;;1.6;;
74644;SDS011;63163;55.630;37.594;2023-02-11T05:16:50;7.8;;;2.2;;
74644;SDS011;63163;55.630;37.594;2023-02-11T05:17:50;8.0;;;1.9;;
74644;SDS011;63163;55.630;37.594;2023-02-11T05:18:51;5.3;;;2.1;;
74644;SDS011;63163;55.630;37.594;2023-02-11T05:19:54;6.6;;;2.0;;
74644;SDS011;63163;55.630;37.594;2023-02-11T05:20:55;6.5;;;2.4;;
74644;SDS011;63163;55.630;37.594;2023-02-11T05:21:55;9.1;;;2.7;;
74644;SDS011;63163;55.630;37.594;2023-02-11T05:22:56;7.4;;;2.7;;
74644;SDS011;63163;55.630;37.594;2023-02-11T05:23:56;6.8;;;2.2;;
74644;SDS011;63163;55.630;37.594;2023-02-11T05:24:57;3.7;;;2.0;;
74644;SDS011;63163;55.630;37.594;2023-02-11T05:25:57;6.2;;;2.5;;
74644;SDS011;63163;55.630;37.594;2023-02-11T05:26:58;5.0;;;1.9;;
74644;SDS011;63163;55.630;37.594;2023-02-11T05:27:59;5.8;;;2.3;;
74644;SDS011;63163;55.630;37.594;2023-02-11T05:29:00;7.1;;;2.3;;
74644;SDS011;63163;55.630;37.594;2023-02-11T05:30:01;8.1;;;1.9;;
74644;SDS011;63163;55.630;37.594;2023-02-11T05:31:02;7.1;;;2.4;;
74644;SDS011;63163;55.630;37.594;2023-02-11T05:32:02;6.1;;;2.4;;
74644;SDS011;63163;55.630;37.594;2023-02-11T05:33:03;7.3;;;2.6;;
74644;SDS011;63163;55.630;37.594;2023-02-11T05:34:04;9.6;;;2.6;;
74644;SDS011;63163;55.630;37.594;2023-02-11T05:35:04;6.2;;;2.6;;
74644;SDS011;63163;55.630;37.594;2023-02-11T05:36:06;4.6;;;2.1;;
74644;SDS011;63163;55.630;37.594;2023-02-11T05:37:07;6.8;;;2.5;;
74644;SDS011;63163;55.630;37.594;2023-02-11T05:38:08;4.8;;;2.2;;
74644;SDS011;63163;55.630;37.594;2023-02-11T05:39:08;4.9;;;2.6;;
74644;SDS011;63163;55.630;37.594;2023-02-11T05:40:09;6.8;;;2.7;;
74644;SDS011;63163;55.630;37.594;2023-02-11T05:41:10;5.0;;;2.3;;
74644;SDS011;63163;55.630;37.594;2023-02-11T05:42:12;7.4;;;2.7;;
74644;SDS011;63163;55.630;37.594;2023-02-11T05:43:12;7.8;;;2.7;;
74644;SDS011;63163;55.630;37.594;2023-02-11T05:44:13;6.8;;;2.6;;
74644;SDS011;63163;55.630;37.594;2023-02-11T05:45:13;5.8;;;2.5;;
74644;SDS011;63163;55.630;37.594;2023-02-11T05:46:14;7.2;;;2.4;;
74644;SDS011;63163;55.630;37.594;2023-02-11T05:47:14;7.6;;;2.7;;
74644;SDS011;63163;55.630;37.594;2023-02-11T05:48:15;7.9;;;2.7;;
74644;SDS011;63163;55.630;37.594;2023-02-11T05:49:15;9.2;;;3.0;;
74644;SDS011;63163;55.630;37.594;2023-02-11T05:50:16;7.8;;;2.9;;
74644;SDS011;63163;55.630;37.594;2023-02-11T05:51:17;6.8;;;2.9;;
74644;SDS011;63163;55.630;37.594;2023-02-11T05:52:17;7.5;;;3.1;;
74644;SDS011;63163;55.630;37.594;2023-02-11T05:53:18;8.4;;;3.2;;
74644;SDS011;63163;55.630;37.594;2023-02-11T05:54:18;8.5;;;3.0;;
74644;SDS011;63163;55.630;37.594;2023-02-11T05:55:19;9.5;;;3.3;;
74644;SDS011;63163;55.630;37.594;2023-02-11T05:56:19;7.8;;;3.3;;
74644;SDS011;63163;55.630;37.594;2023-02-11T05:57:20;9.3;;;3.3;;
74644;SDS011;63163;55.630;37.594;2023-02-11T05:58:20;6.8;;;2.9;;
74644;SDS011;63163;55.630;37.594;2023-02-11T05:59:21;7.4;;;2.9;;
74644;SDS011;63163;55.630;37.594;2023-02-11T06:00:21;7.8;;;3.5;;
74644;SDS011;63163;55.630;37.594;2023-02-11T06:01:22;6.6;;;3.1;;
74644;SDS011;63163;55.630;37.594;2023-02-11T06:02:22;9.3;;;3.5;;
74644;SDS011;63163;55.630;37.594;2023-02-11T06:03:23;6.5;;;2.9;;
74644;SDS011;63163;55.630;37.594;2023-02-11T06:04:23;3.0;;;1.6;;
74644;SDS011;63163;55.630;37.594;2023-02-11T06:05:24;7.1;;;3.0;;
74644;SDS011;63163;55.630;37.594;2023-02-11T06:06:24;6.7;;;2.7;;
74644;SDS011;63163;55.630;37.594;2023-02-11T06:07:25;5.6;;;2.5;;
74644;SDS011;63163;55.630;37.594;2023-02-11T06:08:26;7.1;;;3.4;;
74644;SDS011;63163;55.630;37.594;2023-02-11T06:09:26;7.4;;;2.7;;
74644;SDS011;63163;55.630;37.594;2023-02-11T06:10:27;8.9;;;3.7;;
74644;SDS011;63163;55.630;37.594;2023-02-11T06:11:27;7.1;;;2.8;;
74644;SDS011;63163;55.630;37.594;2023-02-11T06:12:28;8.3;;;3.3;;
74644;SDS011;63163;55.630;37.594;2023-02-11T06:13:28;9.5;;;3.7;;
74644;SDS011;63163;55.630;37.594;2023-02-11T06:14:30;7.8;;;3.3;;
74644;SDS011;63163;55.630;37.594;2023-02-11T06:15:31;7.3;;;3.0;;
74644;SDS011;63163;55.630;37.594;2023-02-11T06:16:32;5.5;;;2.6;;
74644;SDS011;63163;55.630;37.594;2023-02-11T06:17:32;9.8;;;3.9;;
74644;SDS011;63163;55.630;37.594;2023-02-11T06:18:33;11.0;;;3.6;;
74644;SDS011;63163;55.630;37.594;2023-02-11T06:19:33;6.9;;;3.3;;
74644;SDS011;63163;55.630;37.594;2023-02-11T06:20:34;10.7;;;3.2;;
74644;SDS011;63163;55.630;37.594;2023-02-11T06:21:35;10.4;;;3.7;;
74644;SDS011;63163;55.630;37.594;2023-02-11T06:22:35;4.1;;;2.1;;